Time;durP1;ratioP1;P1;durP2;ratioP2;P2;SDS_P1;SDS_P2;PMS_P1;PMS_P2;Temp;Humidity;BMP_temperature;BMP_pressure;BME280_temperature;BME280_humidity;BME280_pressure;Samples;Min_cycle;Max_cycle;Signal;HPM_P1;HPM_P2
2021/10/19 00:00:40;;;;;;;19.80;17.00;;;9.50;99.90;;;;;;5053273;28;20260;-53
2021/10/19 00:03:08;;;;;;;19.27;17.23;;;9.50;99.90;;;;;;5053010;28;20174;-53
2021/10/19 00:05:34;;;;;;;15.40;13.53;;;9.50;99.90;;;;;;5053388;28;20189;-52
2021/10/19 00:08:00;;;;;;;16.50;14.67;;;9.50;99.90;;;;;;5052741;28;20436;-51
2021/10/19 00:10:26;;;;;;;18.03;14.97;;;9.60;99.90;;;;;;5041877;28;20907;-53
2021/10/19 00:12:52;;;;;;;18.83;15.73;;;9.60;99.90;;;;;;5053383;28;20479;-52
2021/10/19 00:15:18;;;;;;;20.33;17.50;;;9.60;99.90;;;;;;5052626;28;20477;-51
2021/10/19 00:17:46;;;;;;;19.07;15.17;;;9.30;99.90;;;;;;5048632;28;20208;-51
2021/10/19 00:20:13;;;;;;;19.37;17.30;;;9.20;99.90;;;;;;5033608;28;20428;-54
2021/10/19 00:22:39;;;;;;;19.43;17.27;;;9.30;99.90;;;;;;5033190;28;20820;-51
2021/10/19 00:25:05;;;;;;;19.73;15.93;;;9.40;99.90;;;;;;5032918;28;20849;-51
2021/10/19 00:27:34;;;;;;;17.53;15.70;;;9.40;99.90;;;;;;5033059;28;20414;-56
2021/10/19 00:30:01;;;;;;;16.40;14.20;;;9.50;99.90;;;;;;5032968;28;20401;-52
2021/10/19 00:32:27;;;;;;;19.63;15.13;;;9.50;99.90;;;;;;5032600;28;20466;-52
2021/10/19 00:34:53;;;;;;;17.60;15.80;;;9.60;99.90;;;;;;5033279;28;20433;-57
2021/10/19 00:37:19;;;;;;;16.70;14.00;;;9.60;99.90;;;;;;5033303;28;20331;-56
2021/10/19 00:39:44;;;;;;;14.40;12.57;;;9.50;99.90;;;;;;5032859;28;20907;-54
2021/10/19 00:42:10;;;;;;;17.40;14.27;;;9.60;99.90;;;;;;5033349;28;20175;-54
2021/10/19 00:44:36;;;;;;;14.20;12.80;;;9.60;99.90;;;;;;5033066;28;20170;-51
2021/10/19 00:47:01;;;;;;;15.60;12.33;;;9.60;99.90;;;;;;5051924;28;20320;-54
2021/10/19 00:49:27;;;;;;;15.63;13.97;;;9.60;99.90;;;;;;5052739;28;20178;-54
2021/10/19 00:51:54;;;;;;;15.40;13.70;;;9.50;99.90;;;;;;5053356;28;20170;-53
2021/10/19 00:54:25;;;;;;;13.20;11.90;;;9.50;99.90;;;;;;5053045;28;20179;-51
2021/10/19 00:56:55;;;;;;;15.80;13.43;;;9.40;99.90;;;;;;5053367;28;20460;-52
2021/10/19 00:59:21;;;;;;;18.73;15.53;;;9.50;99.90;;;;;;5052724;28;20461;-54
2021/10/19 01:01:48;;;;;;;15.13;13.53;;;9.50;99.90;;;;;;5054532;28;20453;-54
2021/10/19 01:04:13;;;;;;;15.83;13.90;;;9.40;99.90;;;;;;5056849;28;20959;-52
2021/10/19 01:06:39;;;;;;;15.67;14.03;;;9.30;99.90;;;;;;5056622;28;20431;-55
2021/10/19 01:09:06;;;;;;;16.80;14.40;;;9.30;99.90;;;;;;5056818;28;20558;-54
2021/10/19 01:11:32;;;;;;;16.73;13.90;;;9.40;99.90;;;;;;5056648;28;20439;-55
2021/10/19 01:13:58;;;;;;;15.27;13.00;;;9.40;99.90;;;;;;5056984;28;20432;-55
2021/10/19 01:16:24;;;;;;;16.20;12.33;;;9.50;99.90;;;;;;5056194;28;20509;-52
2021/10/19 01:18:50;;;;;;;14.93;13.37;;;9.60;99.90;;;;;;5056336;28;20178;-52
2021/10/19 01:21:16;;;;;;;14.80;13.20;;;9.50;99.90;;;;;;5056586;28;20169;-51
2021/10/19 01:23:42;;;;;;;13.50;12.00;;;9.40;99.90;;;;;;5056434;28;20422;-56
2021/10/19 01:26:09;;;;;;;12.50;11.10;;;9.40;99.90;;;;;;5056358;28;20199;-51
2021/10/19 01:28:38;;;;;;;14.93;13.33;;;9.40;99.90;;;;;;5056084;28;20778;-52
2021/10/19 01:31:05;;;;;;;15.17;12.47;;;9.40;99.90;;;;;;5055964;28;20779;-51
2021/10/19 01:33:32;;;;;;;21.63;14.60;;;9.50;99.90;;;;;;5055932;28;20403;-55
2021/10/19 01:35:57;;;;;;;12.27;11.00;;;9.50;99.90;;;;;;5055836;28;20469;-52
2021/10/19 01:38:26;;;;;;;12.67;11.37;;;9.50;99.90;;;;;;5055920;28;20782;-51
2021/10/19 01:40:53;;;;;;;15.73;14.03;;;9.60;99.90;;;;;;5055951;28;20260;-55
2021/10/19 01:43:21;;;;;;;16.20;13.83;;;9.70;99.90;;;;;;5038117;28;20412;-51
2021/10/19 01:45:51;;;;;;;13.17;11.77;;;9.70;99.90;;;;;;5055717;28;20493;-51
2021/10/19 01:48:17;;;;;;;14.20;12.17;;;9.80;99.90;;;;;;5055501;28;20448;-51
2021/10/19 01:50:43;;;;;;;11.70;10.47;;;9.80;99.90;;;;;;5055586;28;20555;-50
2021/10/19 01:53:10;;;;;;;13.10;11.70;;;10.00;99.90;;;;;;5037695;28;20425;-54
2021/10/19 01:55:37;;;;;;;14.37;12.60;;;10.10;99.90;;;;;;5055671;28;20449;-56
2021/10/19 01:58:03;;;;;;;14.50;12.13;;;10.20;99.90;;;;;;5055456;28;20402;-53
2021/10/19 02:00:28;;;;;;;13.60;12.07;;;10.10;99.90;;;;;;5055437;28;20401;-51
2021/10/19 02:02:54;;;;;;;12.07;10.87;;;10.20;99.90;;;;;;5054980;28;20412;-56
2021/10/19 02:05:20;;;;;;;12.20;11.10;;;10.20;99.90;;;;;;5055672;28;20201;-52
2021/10/19 02:07:45;;;;;;;14.57;13.13;;;10.30;99.90;;;;;;5055805;28;20188;-52
2021/10/19 02:10:12;;;;;;;14.17;12.77;;;10.30;99.90;;;;;;5051821;28;20178;-51
2021/10/19 02:12:38;;;;;;;12.60;11.40;;;10.30;99.90;;;;;;5035352;28;20665;-54
2021/10/19 02:15:06;;;;;;;12.50;11.30;;;10.30;99.90;;;;;;5020892;28;20534;-52
2021/10/19 02:17:31;;;;;;;14.37;12.60;;;10.40;99.90;;;;;;5055389;28;20398;-53
2021/10/19 02:20:00;;;;;;;13.57;12.20;;;10.50;99.90;;;;;;5055188;28;20431;-52
2021/10/19 02:22:27;;;;;;;13.57;12.00;;;10.50;99.90;;;;;;5055429;28;20581;-52
2021/10/19 02:24:52;;;;;;;12.60;11.40;;;10.60;99.90;;;;;;5055345;28;20401;-55
2021/10/19 02:27:18;;;;;;;12.10;10.90;;;10.60;99.90;;;;;;5055381;28;20412;-50
2021/10/19 02:29:44;;;;;;;13.43;12.10;;;10.70;99.90;;;;;;5055632;28;20615;-53
2021/10/19 02:32:09;;;;;;;12.30;11.10;;;10.70;99.90;;;;;;5055389;28;20213;-51
2021/10/19 02:34:35;;;;;;;11.30;10.10;;;10.70;99.90;;;;;;5055131;28;20170;-53
2021/10/19 02:37:01;;;;;;;13.80;12.40;;;10.70;99.90;;;;;;5055346;28;20198;-54
2021/10/19 02:39:27;;;;;;;11.47;10.30;;;10.80;99.90;;;;;;5055485;28;20171;-53
2021/10/19 02:41:52;;;;;;;12.80;11.40;;;10.90;99.90;;;;;;5055090;28;20465;-57
2021/10/19 02:44:18;;;;;;;9.73;8.80;;;10.90;99.90;;;;;;5055032;28;20218;-55
2021/10/19 02:46:44;;;;;;;11.83;10.70;;;10.90;99.90;;;;;;5054339;28;20202;-54
2021/10/19 02:49:09;;;;;;;11.63;10.53;;;10.80;99.90;;;;;;5054560;28;20171;-56
2021/10/19 02:51:35;;;;;;;13.33;11.33;;;10.80;99.90;;;;;;5054976;28;20693;-56
2021/10/19 02:54:00;;;;;;;14.37;12.97;;;10.80;99.90;;;;;;5054975;28;20259;-56
2021/10/19 02:56:26;;;;;;;15.60;14.00;;;10.70;99.90;;;;;;5054331;28;20200;-54
2021/10/19 02:58:52;;;;;;;16.23;14.57;;;10.40;99.90;;;;;;5054406;28;20265;-56
2021/10/19 03:01:17;;;;;;;14.93;13.33;;;10.60;99.90;;;;;;5051329;28;20168;-54
2021/10/19 03:03:43;;;;;;;12.10;11.00;;;10.70;99.90;;;;;;5045483;28;20183;-52
2021/10/19 03:06:08;;;;;;;15.60;12.67;;;10.80;99.90;;;;;;5054146;28;20195;-56
2021/10/19 03:08:34;;;;;;;14.30;12.90;;;10.80;99.90;;;;;;5054310;28;20181;-51
2021/10/19 03:10:59;;;;;;;14.50;13.07;;;10.80;99.90;;;;;;5054352;28;20663;-56
2021/10/19 03:13:28;;;;;;;16.93;15.00;;;10.80;99.90;;;;;;5054058;28;20185;-55
2021/10/19 03:15:55;;;;;;;15.30;13.80;;;10.70;99.90;;;;;;5054395;23;20218;-52
2021/10/19 03:18:20;;;;;;;14.03;12.40;;;10.70;99.90;;;;;;5066786;28;20856;-55
2021/10/19 03:20:46;;;;;;;14.67;12.30;;;10.60;99.90;;;;;;5062669;28;20419;-56
2021/10/19 03:23:12;;;;;;;14.07;12.53;;;10.70;99.90;;;;;;5055622;28;20172;-56
2021/10/19 03:25:37;;;;;;;17.87;13.17;;;10.90;99.90;;;;;;5051338;28;20558;-58
2021/10/19 03:28:03;;;;;;;15.80;14.07;;;10.90;99.90;;;;;;5034252;28;20164;-57
2021/10/19 03:30:29;;;;;;;14.33;12.67;;;11.10;99.90;;;;;;5033863;28;20169;-56
2021/10/19 03:32:55;;;;;;;15.00;13.53;;;11.10;99.90;;;;;;5034139;28;20191;-58
2021/10/19 03:35:20;;;;;;;15.43;13.77;;;11.10;99.90;;;;;;5033928;28;20178;-55
2021/10/19 03:37:46;;;;;;;14.70;13.20;;;11.00;99.90;;;;;;5034601;28;20195;-57
2021/10/19 03:40:12;;;;;;;14.60;13.10;;;11.00;99.90;;;;;;5034807;28;20170;-56
2021/10/19 03:42:41;;;;;;;14.27;12.77;;;11.00;99.90;;;;;;5034068;28;20517;-57
2021/10/19 03:45:08;;;;;;;15.40;13.77;;;11.10;99.90;;;;;;5034278;28;20410;-56
2021/10/19 03:47:34;;;;;;;13.37;11.97;;;11.10;99.90;;;;;;5051795;28;20449;-56
2021/10/19 03:49:59;;;;;;;15.40;13.80;;;11.00;99.90;;;;;;5053596;28;20492;-56
2021/10/19 03:52:25;;;;;;;12.93;11.60;;;11.00;99.90;;;;;;5053999;28;20689;-56
2021/10/19 03:54:51;;;;;;;14.10;12.27;;;11.20;99.90;;;;;;5053668;28;20170;-56
2021/10/19 03:57:16;;;;;;;12.93;11.70;;;11.10;99.90;;;;;;5053457;28;20255;-57
2021/10/19 03:59:42;;;;;;;14.80;13.30;;;11.20;99.90;;;;;;5053635;28;20218;-55
2021/10/19 04:02:07;;;;;;;11.87;10.70;;;11.30;99.90;;;;;;5053358;28;20177;-55
2021/10/19 04:04:36;;;;;;;14.33;12.87;;;11.30;99.90;;;;;;5053400;28;20163;-56
2021/10/19 04:07:03;;;;;;;16.47;13.80;;;11.30;99.90;;;;;;5053488;28;20194;-58
2021/10/19 04:09:29;;;;;;;14.93;13.43;;;11.30;99.90;;;;;;5053592;28;20886;-57
2021/10/19 04:11:55;;;;;;;13.30;11.90;;;11.40;99.90;;;;;;5053462;28;20891;-56
2021/10/19 04:14:21;;;;;;;13.33;12.03;;;11.40;99.90;;;;;;5052900;28;20416;-51
2021/10/19 04:16:46;;;;;;;14.00;11.77;;;11.50;99.90;;;;;;5049771;28;20465;-57
2021/10/19 04:19:12;;;;;;;12.50;11.37;;;11.50;99.90;;;;;;5053166;28;20537;-56
2021/10/19 04:21:41;;;;;;;14.17;12.53;;;11.50;99.90;;;;;;5053598;28;20245;-58
2021/10/19 04:24:07;;;;;;;14.17;12.73;;;11.50;99.90;;;;;;5053537;28;20583;-57
2021/10/19 04:26:33;;;;;;;15.00;13.50;;;11.60;99.90;;;;;;5051929;28;20456;-58
2021/10/19 04:28:58;;;;;;;15.00;13.30;;;11.60;99.90;;;;;;5053149;28;20424;-58
2021/10/19 04:31:24;;;;;;;12.80;11.50;;;11.50;99.90;;;;;;5053305;28;20173;-56
2021/10/19 04:33:50;;;;;;;12.80;11.50;;;11.50;99.90;;;;;;5053029;28;20217;-56
2021/10/19 04:36:15;;;;;;;12.37;11.07;;;11.50;99.90;;;;;;5052328;28;20209;-56
2021/10/19 04:38:42;;;;;;;13.83;12.27;;;11.50;99.90;;;;;;5053126;28;20636;-54
2021/10/19 04:41:07;;;;;;;13.80;11.37;;;11.50;99.90;;;;;;5053183;28;20167;-56
2021/10/19 04:43:33;;;;;;;13.43;10.37;;;11.50;99.90;;;;;;5053408;28;20901;-55
2021/10/19 04:45:59;;;;;;;13.07;11.80;;;11.50;99.90;;;;;;5051376;28;20709;-56
2021/10/19 04:48:25;;;;;;;12.07;10.80;;;11.60;99.90;;;;;;5053196;28;20179;-56
2021/10/19 04:50:51;;;;;;;12.40;11.10;;;11.60;99.90;;;;;;5052976;28;20171;-57
2021/10/19 04:53:16;;;;;;;14.23;10.83;;;11.70;99.90;;;;;;5053265;28;20431;-56
2021/10/19 04:55:42;;;;;;;12.80;11.13;;;11.70;99.90;;;;;;5052877;28;20206;-56
2021/10/19 04:58:08;;;;;;;17.80;14.80;;;11.80;99.90;;;;;;5052934;28;20167;-55
2021/10/19 05:00:33;;;;;;;14.40;12.97;;;11.80;99.90;;;;;;5053644;28;20171;-57
2021/10/19 05:02:59;;;;;;;12.60;11.33;;;11.70;99.90;;;;;;5052747;28;20205;-57
2021/10/19 05:05:25;;;;;;;14.93;13.37;;;11.70;99.90;;;;;;5052672;28;20179;-57
2021/10/19 05:07:51;;;;;;;12.70;11.43;;;11.80;99.90;;;;;;5052779;28;20194;-53
2021/10/19 05:10:17;;;;;;;12.90;11.23;;;11.80;99.90;;;;;;5053007;28;20452;-53
2021/10/19 05:12:43;;;;;;;14.40;12.10;;;11.90;99.90;;;;;;5053495;28;20168;-53
2021/10/19 05:15:10;;;;;;;12.40;11.00;;;11.90;99.90;;;;;;5053112;28;20474;-57
2021/10/19 05:17:36;;;;;;;11.27;10.17;;;11.80;99.90;;;;;;5052342;28;20457;-55
2021/10/19 05:20:03;;;;;;;13.40;11.70;;;11.80;99.90;;;;;;5052999;28;20829;-57
2021/10/19 05:22:29;;;;;;;12.07;10.87;;;11.80;99.90;;;;;;5052556;28;20408;-57
2021/10/19 05:24:55;;;;;;;12.67;11.40;;;11.80;99.90;;;;;;5052773;28;20973;-57
2021/10/19 05:27:20;;;;;;;13.77;11.20;;;11.80;99.90;;;;;;5052783;28;20253;-55
2021/10/19 05:29:46;;;;;;;14.93;12.73;;;11.90;99.90;;;;;;5052631;28;20261;-55
2021/10/19 05:32:12;;;;;;;14.37;12.97;;;11.90;99.90;;;;;;5052305;28;20270;-53
2021/10/19 05:34:38;;;;;;;15.23;13.63;;;11.90;99.90;;;;;;5052275;28;20281;-55
2021/10/19 05:37:03;;;;;;;12.80;11.60;;;11.90;99.90;;;;;;5052526;28;20460;-55
2021/10/19 05:39:29;;;;;;;14.87;13.30;;;11.90;99.90;;;;;;5052525;28;20167;-54
2021/10/19 05:41:55;;;;;;;12.80;10.67;;;11.90;99.90;;;;;;5052595;28;20173;-57
2021/10/19 05:44:21;;;;;;;14.20;12.90;;;11.90;99.90;;;;;;5052592;28;20512;-56
2021/10/19 05:46:47;;;;;;;13.23;11.83;;;11.90;99.90;;;;;;5052490;28;20246;-57
2021/10/19 05:49:12;;;;;;;14.07;12.37;;;11.90;99.90;;;;;;5055871;28;20414;-54
2021/10/19 05:51:38;;;;;;;13.63;12.23;;;12.00;99.90;;;;;;5055940;28;20166;-56
2021/10/19 05:54:03;;;;;;;12.60;11.40;;;12.10;99.90;;;;;;5055831;28;20590;-53
2021/10/19 05:56:29;;;;;;;13.80;12.50;;;12.10;99.90;;;;;;5055679;28;20198;-59
2021/10/19 05:58:54;;;;;;;14.87;13.47;;;12.10;99.90;;;;;;5056421;28;20202;-59
2021/10/19 06:01:20;;;;;;;13.23;11.83;;;11.90;99.90;;;;;;5055627;28;20254;-59
2021/10/19 06:03:46;;;;;;;17.40;15.50;;;12.00;99.90;;;;;;5054267;28;20170;-56
2021/10/19 06:06:15;;;;;;;13.50;12.13;;;12.00;99.90;;;;;;5055898;28;20194;-58
2021/10/19 06:08:41;;;;;;;13.20;11.90;;;12.10;99.90;;;;;;5055773;28;20250;-59
2021/10/19 06:11:07;;;;;;;14.87;13.37;;;12.10;99.90;;;;;;5055603;28;20843;-58
2021/10/19 06:13:33;;;;;;;13.83;11.27;;;12.20;99.90;;;;;;5046928;28;20417;-57
2021/10/19 06:15:59;;;;;;;11.93;10.73;;;12.30;99.90;;;;;;5042492;28;20461;-55
2021/10/19 06:18:24;;;;;;;10.47;9.47;;;12.30;99.90;;;;;;5055319;28;20420;-60
2021/10/19 06:20:51;;;;;;;10.90;9.80;;;12.40;99.90;;;;;;5055249;28;20161;-56
2021/10/19 06:23:18;;;;;;;11.70;10.23;;;12.50;99.90;;;;;;5055513;28;20640;-57
2021/10/19 06:25:45;;;;;;;11.27;10.20;;;12.40;99.90;;;;;;5055489;28;20436;-57
2021/10/19 06:28:10;;;;;;;10.00;8.60;;;12.40;99.90;;;;;;5055488;28;20404;-57
2021/10/19 06:30:36;;;;;;;9.90;8.90;;;12.40;99.90;;;;;;5055670;28;20412;-57
2021/10/19 06:33:02;;;;;;;9.23;8.00;;;12.40;99.90;;;;;;5054908;28;20226;-54
2021/10/19 06:35:28;;;;;;;8.97;8.17;;;12.40;99.90;;;;;;5054094;28;20910;-55
2021/10/19 06:37:54;;;;;;;8.90;8.00;;;12.50;99.90;;;;;;5055248;28;20159;-57
2021/10/19 06:40:20;;;;;;;9.00;8.10;;;12.60;99.90;;;;;;5054858;28;20643;-58
2021/10/19 06:42:46;;;;;;;8.63;7.60;;;12.60;99.90;;;;;;5055260;28;20405;-56
2021/10/19 06:45:12;;;;;;;7.93;7.13;;;12.70;99.90;;;;;;5054990;28;20587;-57
2021/10/19 06:47:38;;;;;;;8.23;6.87;;;12.80;99.90;;;;;;5054410;28;20186;-57
2021/10/19 06:50:06;;;;;;;7.87;7.10;;;12.80;99.90;;;;;;5054729;28;20401;-57
2021/10/19 06:52:32;;;;;;;9.53;8.63;;;13.00;99.90;;;;;;5054577;28;20406;-58
2021/10/19 06:54:58;;;;;;;12.73;10.27;;;12.90;99.90;;;;;;5054730;28;20405;-57
2021/10/19 06:57:24;;;;;;;10.87;9.77;;;12.90;99.90;;;;;;5054414;28;20490;-56
2021/10/19 06:59:49;;;;;;;16.13;13.70;;;12.90;99.90;;;;;;5053867;28;20196;-55
2021/10/19 07:02:15;;;;;;;21.97;17.37;;;12.80;99.90;;;;;;5054446;28;20173;-55
2021/10/19 07:04:41;;;;;;;18.70;15.33;;;12.90;99.90;;;;;;5054779;28;20561;-55
2021/10/19 07:07:06;;;;;;;21.83;16.60;;;13.00;99.90;;;;;;5054709;28;20190;-50
2021/10/19 07:09:32;;;;;;;16.80;14.23;;;12.90;99.90;;;;;;5054772;28;20221;-53
2021/10/19 07:11:58;;;;;;;17.57;13.17;;;13.10;99.90;;;;;;5055272;28;20175;-53
2021/10/19 07:14:24;;;;;;;17.27;13.97;;;13.30;99.90;;;;;;5055318;28;20200;-55
2021/10/19 07:16:51;;;;;;;20.13;16.77;;;13.30;99.90;;;;;;5054501;28;20995;-53
2021/10/19 07:19:16;;;;;;;16.30;13.47;;;13.40;99.90;;;;;;5058390;28;20909;-52
2021/10/19 07:21:43;;;;;;;16.90;14.57;;;13.50;99.90;;;;;;5056291;28;20407;-54
2021/10/19 07:24:08;;;;;;;15.33;13.73;;;13.50;99.90;;;;;;5055649;28;20695;-57
2021/10/19 07:26:35;;;;;;;13.67;10.57;;;13.40;99.90;;;;;;5054500;28;20530;-57
2021/10/19 07:29:01;;;;;;;12.20;11.00;;;13.50;99.90;;;;;;5054800;28;20175;-55
2021/10/19 07:31:26;;;;;;;13.97;10.57;;;13.60;99.90;;;;;;5053971;28;20399;-58
2021/10/19 07:33:52;;;;;;;10.83;9.43;;;13.70;99.90;;;;;;5052942;28;20172;-54
2021/10/19 07:36:17;;;;;;;14.50;11.33;;;13.80;99.90;;;;;;5054226;28;20334;-54
2021/10/19 07:38:45;;;;;;;21.70;13.77;;;13.90;99.90;;;;;;5059661;28;20173;-57
2021/10/19 07:41:10;;;;;;;17.03;14.13;;;13.90;99.90;;;;;;5057728;28;20175;-57
2021/10/19 07:43:36;;;;;;;15.93;13.07;;;13.90;99.90;;;;;;5055890;28;20891;-54
2021/10/19 07:46:02;;;;;;;15.27;13.67;;;13.90;99.90;;;;;;5055047;28;20244;-54
2021/10/19 07:48:27;;;;;;;16.63;12.57;;;13.90;99.90;;;;;;5057294;28;20265;-54
2021/10/19 07:50:53;;;;;;;12.87;11.53;;;14.10;99.90;;;;;;5056186;28;20205;-53
2021/10/19 07:53:19;;;;;;;17.43;14.40;;;14.10;99.90;;;;;;5056863;28;20542;-55
2021/10/19 07:55:44;;;;;;;15.60;11.87;;;14.30;99.90;;;;;;5056360;28;20569;-52
2021/10/19 07:58:10;;;;;;;12.87;11.50;;;14.40;99.90;;;;;;5055949;28;20164;-53
2021/10/19 08:00:36;;;;;;;15.00;11.63;;;14.50;99.90;;;;;;5056265;28;20176;-53
2021/10/19 08:03:01;;;;;;;15.13;12.73;;;14.60;99.90;;;;;;5056416;28;20162;-55
2021/10/19 08:05:29;;;;;;;14.57;12.23;;;14.50;99.90;;;;;;5054552;28;20168;-54
2021/10/19 08:08:09;;;;;;;13.83;11.30;;;14.30;99.90;;;;;;5056493;28;20181;-56
2021/10/19 08:10:36;;;;;;;17.87;12.77;;;14.30;99.90;;;;;;5053502;28;20411;-57
2021/10/19 08:13:02;;;;;;;17.70;12.83;;;14.00;99.90;;;;;;5053494;28;20409;-59
2021/10/19 08:15:28;;;;;;;15.20;13.70;;;14.10;99.90;;;;;;5053670;28;20406;-58
2021/10/19 08:17:53;;;;;;;15.00;12.77;;;14.00;99.90;;;;;;5051421;28;20420;-56
2021/10/19 08:20:19;;;;;;;14.30;12.90;;;14.00;99.90;;;;;;5032973;28;20240;-58
2021/10/19 08:22:45;;;;;;;14.10;12.63;;;14.00;99.90;;;;;;5033589;28;20165;-57
2021/10/19 08:25:11;;;;;;;16.80;14.23;;;14.20;99.90;;;;;;5033702;28;20167;-56
2021/10/19 08:27:39;;;;;;;14.33;12.93;;;14.00;99.90;;;;;;5033532;28;20797;-54
2021/10/19 08:30:07;;;;;;;16.03;13.03;;;14.10;99.90;;;;;;5033167;28;20236;-56
2021/10/19 08:32:33;;;;;;;14.17;12.67;;;14.30;99.90;;;;;;5033431;28;20789;-57
2021/10/19 08:34:59;;;;;;;13.33;11.83;;;14.50;99.90;;;;;;5033387;28;20909;-57
2021/10/19 08:37:24;;;;;;;14.67;12.07;;;14.80;99.90;;;;;;5033297;28;20231;-56
2021/10/19 08:39:50;;;;;;;14.87;12.40;;;15.00;99.90;;;;;;5033761;28;20928;-57
2021/10/19 08:42:16;;;;;;;17.80;14.10;;;15.00;99.90;;;;;;5033339;28;20249;-57
2021/10/19 08:44:44;;;;;;;14.50;12.30;;;15.10;99.90;;;;;;5033252;28;20645;-58
2021/10/19 08:47:10;;;;;;;16.33;12.00;;;14.70;99.90;;;;;;5047693;28;20523;-55
2021/10/19 08:49:36;;;;;;;14.00;12.60;;;14.50;99.90;;;;;;5053287;28;20434;-58
2021/10/19 08:52:01;;;;;;;14.70;13.23;;;14.60;99.90;;;;;;5053321;28;20665;-57
2021/10/19 08:54:27;;;;;;;15.63;14.03;;;14.50;99.90;;;;;;5053578;28;20204;-57
2021/10/19 08:56:53;;;;;;;13.47;11.30;;;14.30;99.90;;;;;;5052646;28;20283;-58
2021/10/19 08:59:23;;;;;;;7.37;6.63;;;14.30;99.90;;;;;;5053309;28;20174;-57
2021/10/19 09:01:53;;;;;;;4.33;3.93;;;14.20;99.90;;;;;;5052516;28;20491;-56
2021/10/19 09:04:18;;;;;;;4.90;4.20;;;14.00;99.90;;;;;;5052895;28;20410;-57
2021/10/19 09:06:44;;;;;;;4.97;3.97;;;14.10;99.90;;;;;;5040824;28;20528;-56
2021/10/19 09:09:23;;;;;;;5.67;5.17;;;14.20;99.90;;;;;;5052945;28;20170;-55
2021/10/19 09:11:50;;;;;;;13.27;10.17;;;14.30;99.90;;;;;;5053001;28;20392;-55
2021/10/19 09:14:19;;;;;;;16.00;11.23;;;14.20;99.90;;;;;;5052984;28;20421;-55
2021/10/19 09:16:49;;;;;;;16.20;12.90;;;14.10;99.90;;;;;;5052290;28;20520;-56
2021/10/19 09:19:18;;;;;;;19.60;12.60;;;14.10;99.90;;;;;;5078920;22;21009;-53
2021/10/19 09:21:51;;;;;;;12.53;11.13;;;14.20;99.90;;;;;;5084393;28;20830;-55
2021/10/19 09:24:24;;;;;;;13.93;8.23;;;14.40;99.90;;;;;;5078592;28;20387;-55
2021/10/19 09:26:54;;;;;;;5.13;4.53;;;14.40;99.90;;;;;;5096778;28;20385;-52
2021/10/19 09:29:21;;;;;;;4.47;4.07;;;14.40;99.90;;;;;;5086114;28;20797;-53
2021/10/19 09:31:50;;;;;;;4.70;4.30;;;14.40;99.90;;;;;;5076349;28;20783;-52
2021/10/19 09:34:16;;;;;;;4.50;4.10;;;14.50;99.90;;;;;;5075519;28;20448;-53
2021/10/19 09:36:41;;;;;;;4.23;3.83;;;14.40;99.90;;;;;;5069282;28;20980;-52
2021/10/19 09:39:07;;;;;;;5.40;4.90;;;14.50;99.90;;;;;;5067115;28;20276;-52
2021/10/19 09:41:46;;;;;;;4.70;4.30;;;14.60;99.90;;;;;;5076262;28;20190;-55
2021/10/19 09:44:16;;;;;;;4.73;4.20;;;14.80;99.90;;;;;;5075918;28;20513;-53
2021/10/19 09:46:42;;;;;;;3.87;3.50;;;14.80;99.90;;;;;;5076095;28;20399;-53
2021/10/19 09:49:12;;;;;;;4.50;4.10;;;14.80;99.90;;;;;;5075300;28;20436;-53
2021/10/19 09:51:39;;;;;;;5.30;4.80;;;14.80;99.90;;;;;;5075636;28;20411;-54
2021/10/19 09:54:17;;;;;;;5.20;4.33;;;14.80;99.90;;;;;;5075668;28;20411;-53
2021/10/19 09:56:43;;;;;;;4.47;4.07;;;14.90;99.90;;;;;;5075828;28;20798;-54
2021/10/19 09:59:09;;;;;;;5.20;4.20;;;14.90;99.90;;;;;;5075601;28;20418;-50
2021/10/19 10:01:35;;;;;;;4.80;4.17;;;14.90;99.90;;;;;;5075976;28;20165;-54
2021/10/19 10:04:02;;;;;;;5.67;4.20;;;14.90;99.90;;;;;;5075409;28;20164;-55
2021/10/19 10:06:29;;;;;;;4.70;4.23;;;15.00;99.90;;;;;;5075276;28;20405;-53
2021/10/19 10:08:57;;;;;;;8.40;4.60;;;14.90;99.90;;;;;;5072845;28;20431;-53
2021/10/19 10:11:23;;;;;;;5.00;4.50;;;14.90;99.90;;;;;;5055688;28;20457;-52
2021/10/19 10:14:04;;;;;;;4.73;3.97;;;14.90;99.90;;;;;;5055424;28;20894;-51
2021/10/19 10:16:40;;;;;;;4.37;3.97;;;15.10;99.90;;;;;;5055471;28;20197;-55
2021/10/19 10:19:19;;;;;;;4.20;3.80;;;15.00;99.90;;;;;;5059926;28;20454;-56
2021/10/19 10:21:54;;;;;;;4.40;4.10;;;14.90;99.90;;;;;;5074801;28;20886;-55
2021/10/19 10:24:30;;;;;;;4.17;3.77;;;14.90;99.90;;;;;;5075410;28;20383;-55
2021/10/19 10:27:08;;;;;;;4.60;4.20;;;15.00;99.90;;;;;;5075209;28;20399;-55
2021/10/19 10:29:48;;;;;;;4.50;3.97;;;15.00;99.90;;;;;;5075020;28;20431;-53
2021/10/19 10:32:26;;;;;;;4.50;4.10;;;15.00;99.90;;;;;;5075424;28;20389;-51
2021/10/19 10:35:05;;;;;;;4.83;3.53;;;14.90;99.90;;;;;;5073621;28;20411;-53
2021/10/19 10:37:45;;;;;;;4.00;3.60;;;14.90;99.90;;;;;;5075413;28;20437;-54
2021/10/19 10:40:32;;;;;;;5.50;3.97;;;15.00;99.90;;;;;;5075239;28;20764;-55
2021/10/19 10:43:01;;;;;;;3.90;3.50;;;15.00;99.90;;;;;;5060974;28;20444;-49
2021/10/19 10:45:33;;;;;;;4.60;4.20;;;15.10;99.90;;;;;;5074967;28;20400;-56
2021/10/19 10:48:06;;;;;;;6.10;3.20;;;15.30;99.90;;;;;;5074967;28;20408;-55
2021/10/19 10:50:35;;;;;;;3.87;3.47;;;15.20;99.90;;;;;;5074212;28;20425;-52
2021/10/19 10:53:07;;;;;;;5.30;3.10;;;15.00;99.90;;;;;;5074672;28;20544;-51
2021/10/19 10:55:54;;;;;;;3.87;3.47;;;15.00;99.90;;;;;;5074670;28;20837;-51
2021/10/19 10:58:28;;;;;;;3.50;3.20;;;14.90;99.90;;;;;;5074709;28;20382;-54
2021/10/19 11:00:54;;;;;;;3.43;3.13;;;14.90;99.90;;;;;;5074560;28;20938;-54
2021/10/19 11:03:21;;;;;;;4.10;3.80;;;14.90;99.90;;;;;;5074469;28;20397;-55
2021/10/19 11:05:59;;;;;;;4.20;3.37;;;14.90;99.90;;;;;;5074683;28;20169;-53
2021/10/19 11:08:30;;;;;;;4.07;3.43;;;14.90;99.90;;;;;;5074355;28;20388;-54
2021/10/19 11:11:08;;;;;;;5.13;4.07;;;15.00;99.90;;;;;;5074280;28;20381;-54
2021/10/19 11:14:00;;;;;;;4.50;4.10;;;15.00;99.90;;;;;;5074238;28;20409;-51
2021/10/19 11:16:33;;;;;;;6.50;3.93;;;15.00;99.90;;;;;;5074421;28;20442;-54
2021/10/19 11:19:00;;;;;;;4.00;3.37;;;14.90;99.90;;;;;;5072818;28;20450;-52
2021/10/19 11:21:26;;;;;;;3.67;3.37;;;15.00;99.90;;;;;;5074122;28;20436;-54
2021/10/19 11:23:52;;;;;;;4.43;3.50;;;15.30;99.90;;;;;;5074024;28;20430;-56
2021/10/19 11:26:17;;;;;;;3.27;2.97;;;15.40;99.90;;;;;;5074240;28;20947;-54
2021/10/19 11:28:44;;;;;;;3.90;3.50;;;15.50;99.90;;;;;;5073832;28;20214;-57
2021/10/19 11:31:12;;;;;;;4.90;3.70;;;15.60;99.90;;;;;;5073790;28;20584;-57
2021/10/19 11:33:43;;;;;;;4.80;4.30;;;15.80;99.90;;;;;;5074169;28;20402;-52
2021/10/19 11:36:09;;;;;;;5.73;4.10;;;16.00;99.90;;;;;;5073441;28;20447;-55
2021/10/19 11:38:49;;;;;;;4.03;3.63;;;16.20;99.90;;;;;;5073124;28;20412;-56
2021/10/19 11:41:17;;;;;;;4.07;3.67;;;16.30;99.90;;;;;;5073884;28;20403;-54
2021/10/19 11:43:52;;;;;;;3.50;3.07;;;16.60;99.90;;;;;;5073793;28;20773;-52
2021/10/19 11:46:20;;;;;;;4.37;3.80;;;16.60;99.90;;;;;;5073497;28;20711;-53
2021/10/19 11:48:51;;;;;;;4.10;3.17;;;16.70;99.90;;;;;;5073001;28;20924;-50
2021/10/19 11:51:18;;;;;;;3.23;3.00;;;16.60;99.90;;;;;;5073314;28;20949;-55
2021/10/19 11:53:45;;;;;;;3.20;2.90;;;16.40;99.90;;;;;;5073740;28;20404;-57
2021/10/19 11:56:12;;;;;;;3.47;3.17;;;16.30;99.90;;;;;;5073249;28;20584;-54
2021/10/19 11:59:01;;;;;;;3.57;3.27;;;16.30;99.90;;;;;;5073415;28;20416;-53
2021/10/19 12:01:27;;;;;;;4.70;3.87;;;16.30;99.90;;;;;;5073530;28;20391;-51
2021/10/19 12:04:07;;;;;;;4.23;3.43;;;16.30;99.90;;;;;;5073338;28;20407;-54
2021/10/19 12:06:35;;;;;;;4.67;3.47;;;16.50;99.90;;;;;;5073411;28;20479;-55
2021/10/19 12:09:18;;;;;;;3.30;3.00;;;16.80;99.90;;;;;;5073376;28;20530;-54
2021/10/19 12:11:58;;;;;;;3.47;3.17;;;17.00;99.90;;;;;;5055351;28;20400;-57
2021/10/19 12:14:34;;;;;;;3.83;3.00;;;17.10;99.90;;;;;;5053142;28;20817;-56
2021/10/19 12:17:04;;;;;;;3.87;3.57;;;17.00;99.90;;;;;;5052934;28;20547;-54
2021/10/19 12:19:31;;;;;;;4.10;3.70;;;16.90;99.90;;;;;;5044151;28;20501;-55
2021/10/19 12:22:00;;;;;;;3.30;2.80;;;16.90;99.90;;;;;;5072918;28;20410;-53
2021/10/19 12:24:25;;;;;;;3.77;3.40;;;16.80;99.90;;;;;;5073136;28;20500;-55
2021/10/19 12:27:02;;;;;;;2.87;2.60;;;16.60;99.90;;;;;;5073375;28;20412;-54
2021/10/19 12:29:33;;;;;;;3.23;2.90;;;16.60;99.90;;;;;;5070277;28;20232;-57
2021/10/19 12:31:59;;;;;;;4.20;2.97;;;16.40;99.90;;;;;;5064852;28;20403;-57
2021/10/19 12:34:27;;;;;;;5.17;3.17;;;16.50;99.90;;;;;;5073020;28;20769;-56
2021/10/19 12:36:56;;;;;;;3.50;2.80;;;16.40;99.90;;;;;;5073231;28;20447;-55